Time;durP1;ratioP1;P1;durP2;ratioP2;P2;SDS_P1;SDS_P2;PMS_P1;PMS_P2;Temp;Humidity;BMP_temperature;BMP_pressure;BME280_temperature;BME280_humidity;BME280_pressure;Samples;Min_cycle;Max_cycle;Signal;HPM_P1;HPM_P2
2022/07/20 00:00:53;;;;;;;6.13;1.90;;;;;;;;;;5027698;28;20029;-75
2022/07/20 00:03:19;;;;;;;4.93;1.98;;;26.00;94.40;;;;;;5009586;28;20112;-75
2022/07/20 00:05:48;;;;;;;6.68;2.20;;;;;;;;;;5032535;28;20116;-75
2022/07/20 00:08:14;;;;;;;6.57;1.90;;;;;;;;;;5030186;28;20065;-76
2022/07/20 00:13:25;;;;;;;4.18;1.92;;;;;;;;;;5029219;28;20657;-73
2022/07/20 00:15:51;;;;;;;6.20;1.67;;;;;;;;;;5024267;28;20046;-75
2022/07/20 00:18:18;;;;;;;5.60;2.30;;;;;;;;;;5030750;28;20041;-74
2022/07/20 00:20:44;;;;;;;3.65;1.92;;;;;;;;;;5029960;28;20029;-74
2022/07/20 00:23:10;;;;;;;5.95;1.83;;;;;;;;;;5028569;28;20446;-73
2022/07/20 00:25:37;;;;;;;6.70;1.63;;;;;;;;;;5023697;28;20072;-75
2022/07/20 00:28:03;;;;;;;4.38;1.85;;;;;;;;;;4997545;28;20084;-75
2022/07/20 00:30:29;;;;;;;3.15;2.30;;;;;;;;;;5019521;28;20050;-73
2022/07/20 00:32:55;;;;;;;4.18;1.77;;;;;;;;;;5016930;28;20040;-73
2022/07/20 00:35:21;;;;;;;7.78;2.40;;;;;;;;;;5029823;28;20398;-75
2022/07/20 00:37:47;;;;;;;7.47;2.55;;;25.40;95.80;;;;;;5024908;28;20112;-72
2022/07/20 00:40:14;;;;;;;7.65;1.85;;;;;;;;;;5029355;28;20029;-75
2022/07/20 00:42:40;;;;;;;6.63;2.00;;;;;;;;;;5031422;28;20021;-75
2022/07/20 00:45:08;;;;;;;4.97;2.00;;;;;;;;;;5028952;28;20497;-76
2022/07/20 00:47:33;;;;;;;3.60;1.88;;;24.90;95.80;;;;;;5025515;28;20041;-75
2022/07/20 00:49:59;;;;;;;6.57;2.20;;;;;;;;;;5027088;28;20041;-78
2022/07/20 00:52:25;;;;;;;8.35;2.20;;;;;;;;;;5028474;28;20044;-75
2022/07/20 00:54:53;;;;;;;3.47;1.77;;;;;;;;;;5025026;28;20041;-75
2022/07/20 00:57:20;;;;;;;10.32;1.70;;;25.10;89.80;;;;;;5029477;28;20037;-74
2022/07/20 00:59:46;;;;;;;5.15;2.00;;;;;;;;;;5013688;28;20033;-73
2022/07/20 01:02:12;;;;;;;8.98;3.95;;;;;;;;;;5031294;28;20143;-75
2022/07/20 01:04:38;;;;;;;3.63;1.83;;;;;;;;;;5021911;28;20493;-76
2022/07/20 01:07:04;;;;;;;5.18;2.30;;;;;;;;;;5013461;28;20083;-72
2022/07/20 01:09:30;;;;;;;3.22;1.55;;;;;;;;;;4986944;28;20041;-77
2022/07/20 01:11:56;;;;;;;5.22;2.20;;;;;;;;;;5005149;28;20553;-75
2022/07/20 01:14:22;;;;;;;7.03;2.30;;;;;;;;;;5027704;28;20556;-75
2022/07/20 01:16:48;;;;;;;7.55;2.10;;;;;;;;;;5006956;28;20026;-75
2022/07/20 01:19:15;;;;;;;6.03;2.63;;;;;;;;;;5014671;28;20120;-74
2022/07/20 01:21:42;;;;;;;3.40;1.73;;;;;;;;;;5020660;28;20038;-73
2022/07/20 01:24:11;;;;;;;4.32;2.00;;;;;;;;;;5018782;28;20488;-74
2022/07/20 01:26:39;;;;;;;3.90;2.10;;;;;;;;;;5022244;28;20076;-74
2022/07/20 01:29:05;;;;;;;4.85;2.40;;;;;;;;;;5027157;28;20084;-76
2022/07/20 01:31:31;;;;;;;3.55;2.15;;;24.40;97.20;;;;;;5027667;28;20033;-73
2022/07/20 01:33:57;;;;;;;6.05;2.33;;;;;;;;;;5028764;28;20044;-75
2022/07/20 01:36:23;;;;;;;6.03;2.05;;;;;;;;;;5023995;28;20553;-75
2022/07/20 01:38:49;;;;;;;5.57;1.90;;;24.30;97.30;;;;;;5023966;28;20120;-74
2022/07/20 01:41:15;;;;;;;5.85;2.00;;;;;;;;;;5024087;28;20113;-74
2022/07/20 01:43:41;;;;;;;3.78;2.22;;;;;;;;;;5014503;28;20387;-75
2022/07/20 01:46:06;;;;;;;3.92;2.13;;;24.20;97.10;;;;;;5022243;28;20037;-75
2022/07/20 01:48:32;;;;;;;6.65;2.50;;;;;;;;;;5026057;28;20037;-74
2022/07/20 01:50:58;;;;;;;6.90;2.40;;;;;;;;;;5018990;28;20029;-75
2022/07/20 01:53:24;;;;;;;5.68;2.35;;;;;;;;;;5009461;28;20527;-75
2022/07/20 01:55:53;;;;;;;4.30;2.28;;;;;;;;;;5027713;28;20030;-75
2022/07/20 01:58:20;;;;;;;6.68;2.33;;;23.90;95.80;;;;;;5016073;28;20037;-73
2022/07/20 02:00:46;;;;;;;9.45;2.17;;;24.00;97.20;;;;;;5029556;28;20108;-75
2022/07/20 02:03:12;;;;;;;5.28;2.38;;;;;;;;;;5036316;28;20064;-75
2022/07/20 02:05:38;;;;;;;5.13;2.53;;;;;;;;;;5025624;28;20075;-75
2022/07/20 02:08:04;;;;;;;3.42;2.35;;;;;;;;;;5026364;28;20029;-77
2022/07/20 02:10:31;;;;;;;5.40;2.55;;;;;;;;;;5031531;28;20034;-74
2022/07/20 02:12:57;;;;;;;7.65;2.33;;;;;;;;;;5029485;28;20030;-75
2022/07/20 02:18:09;;;;;;;5.75;2.50;;;;;;;;;;5029030;28;20408;-74
2022/07/20 02:20:35;;;;;;;5.70;2.55;;;23.50;97.50;;;;;;5024601;28;20432;-74
2022/07/20 02:23:01;;;;;;;7.10;2.75;;;;;;;;;;5024329;28;20035;-75
2022/07/20 02:25:27;;;;;;;4.32;2.35;;;;;;;;;;5017242;28;20034;-77
2022/07/20 02:27:53;;;;;;;2.90;1.77;;;;;;;;;;5027602;28;20516;-75
2022/07/20 02:30:19;;;;;;;6.28;2.50;;;;;;;;;;5018176;28;20104;-75
2022/07/20 02:32:45;;;;;;;7.88;2.55;;;;;;;;;;5029052;28;20485;-73
2022/07/20 02:35:11;;;;;;;5.82;2.13;;;;;;;;;;5020068;28;20032;-75
2022/07/20 02:37:37;;;;;;;5.63;1.90;;;23.30;97.80;;;;;;5032120;28;20029;-73
2022/07/20 02:40:03;;;;;;;5.93;2.10;;;;;;;;;;5031554;28;20392;-73
2022/07/20 02:42:29;;;;;;;9.10;2.10;;;;;;;;;;5013289;28;20025;-73
2022/07/20 02:44:56;;;;;;;10.30;2.33;;;;;;;;;;5028490;28;20037;-75
2022/07/20 02:47:21;;;;;;;8.00;2.25;;;23.50;97.90;;;;;;5018874;28;20037;-75
2022/07/20 02:49:47;;;;;;;8.20;2.60;;;;;;;;;;5023173;28;20052;-72
2022/07/20 02:52:13;;;;;;;30.80;21.38;;;;;;;;;;5038966;28;20435;-74
2022/07/20 02:54:39;;;;;;;8.98;5.97;;;;;;;;;;5037539;28;20037;-74
2022/07/20 02:57:05;;;;;;;9.25;4.43;;;;;;;;;;5032075;28;20038;-77
2022/07/20 02:59:31;;;;;;;6.40;2.78;;;;;;;;;;5035658;28;20044;-74
2022/07/20 03:01:57;;;;;;;14.98;3.08;;;23.20;98.30;;;;;;5033374;28;20355;-75
2022/07/20 03:04:23;;;;;;;5.95;3.22;;;;;;;;;;5031603;28;20056;-75
2022/07/20 03:06:49;;;;;;;2.72;1.98;;;;;;;;;;5029738;28;20046;-87
2022/07/20 03:09:15;;;;;;;10.15;2.60;;;23.30;98.30;;;;;;5025347;28;20041;-76
2022/07/20 03:11:41;;;;;;;4.43;2.13;;;;;;;;;;5023658;28;20099;-75
2022/07/20 03:14:06;;;;;;;7.88;2.90;;;23.00;98.30;;;;;;5031647;28;20473;-74
2022/07/20 03:16:32;;;;;;;7.95;2.60;;;;;;;;;;5027177;28;20037;-75
2022/07/20 03:18:58;;;;;;;13.02;2.97;;;;;;;;;;5020353;28;20037;-78
2022/07/20 03:21:27;;;;;;;6.28;2.55;;;;;;;;;;5028944;28;20112;-77
2022/07/20 03:23:53;;;;;;;8.52;2.50;;;;;;;;;;5038570;28;20048;-78
2022/07/20 03:26:21;;;;;;;4.18;2.20;;;;;;;;;;5021666;28;20437;-84
2022/07/20 03:28:47;;;;;;;6.25;2.47;;;;;;;;;;5024891;28;20185;-76
2022/07/20 03:31:13;;;;;;;4.38;2.13;;;;;;;;;;5025899;28;20381;-73
2022/07/20 03:33:39;;;;;;;7.53;2.75;;;;;;;;;;5022925;28;20024;-73
2022/07/20 03:36:05;;;;;;;4.13;2.15;;;23.20;98.50;;;;;;5024544;28;20393;-73
2022/07/20 03:38:31;;;;;;;9.60;2.33;;;;;;;;;;5003737;28;20037;-72
2022/07/20 03:40:57;;;;;;;13.77;2.35;;;;;;;;;;5023699;28;20064;-73
2022/07/20 03:43:25;;;;;;;4.40;2.33;;;;;;;;;;5028946;28;20477;-72
2022/07/20 03:45:52;;;;;;;15.00;8.38;;;23.10;93.40;;;;;;5026732;28;20197;-74
2022/07/20 03:48:18;;;;;;;14.57;5.82;;;;;;;;;;5034648;28;20048;-72
2022/07/20 03:50:45;;;;;;;7.97;4.38;;;;;;;;;;5031530;28;20441;-73
2022/07/20 03:53:10;;;;;;;6.35;2.55;;;22.90;99.10;;;;;;5016590;28;20040;-74
2022/07/20 03:55:36;;;;;;;6.13;2.70;;;;;;;;;;5028106;28;20444;-73
2022/07/20 03:58:02;;;;;;;5.18;2.70;;;;;;;;;;5005296;28;20080;-76
2022/07/20 04:00:28;;;;;;;8.35;2.13;;;;;;;;;;5023258;28;20381;-72
2022/07/20 04:02:54;;;;;;;8.02;2.60;;;;;;;;;;5027536;28;20032;-73
2022/07/20 04:05:20;;;;;;;8.57;2.88;;;;;;;;;;5030303;28;20436;-74
2022/07/20 04:07:47;;;;;;;5.03;2.60;;;;;;;;;;5029835;28;20041;-71
2022/07/20 04:10:12;;;;;;;6.18;2.30;;;23.00;99.80;;;;;;5027545;28;20540;-71
2022/07/20 04:12:40;;;;;;;6.43;2.42;;;;;;;;;;5020662;28;20124;-71
2022/07/20 04:15:06;;;;;;;5.75;2.20;;;;;;;;;;5023345;28;20030;-71
2022/07/20 04:17:32;;;;;;;12.45;2.60;;;23.00;99.90;;;;;;5032568;28;20080;-71
2022/07/20 04:19:58;;;;;;;5.07;2.50;;;22.80;99.90;;;;;;5021487;28;20038;-74
2022/07/20 04:22:24;;;;;;;6.45;2.70;;;;;;;;;;5031717;28;20033;-72
2022/07/20 04:24:49;;;;;;;32.00;21.42;;;23.00;99.00;;;;;;5011930;28;20025;-73
2022/07/20 04:27:17;;;;;;;7.35;3.60;;;;;;;;;;5004796;28;20359;-76
2022/07/20 04:29:43;;;;;;;7.57;3.05;;;;;;;;;;5028977;28;20054;-73
2022/07/20 04:32:09;;;;;;;9.70;2.53;;;;;;;;;;5030709;28;20033;-77
2022/07/20 04:34:35;;;;;;;5.82;2.63;;;;;;;;;;5029837;28;20438;-74
2022/07/20 04:37:01;;;;;;;4.10;2.50;;;23.00;99.90;;;;;;5036577;28;20033;-72
2022/07/20 04:39:27;;;;;;;5.50;2.85;;;23.10;99.90;;;;;;5023429;28;20392;-76
2022/07/20 04:41:53;;;;;;;7.80;3.38;;;;;;;;;;5020483;28;20091;-73
2022/07/20 04:44:18;;;;;;;12.32;3.63;;;23.10;99.90;;;;;;5023993;28;20033;-71
2022/07/20 04:46:44;;;;;;;9.50;2.83;;;;;;;;;;5027265;28;20040;-79
2022/07/20 04:49:10;;;;;;;9.88;3.42;;;;;;;;;;5023150;28;20100;-77
2022/07/20 04:51:37;;;;;;;8.38;2.58;;;;;;;;;;5026127;28;20056;-77
2022/07/20 04:54:03;;;;;;;8.38;2.45;;;;;;;;;;5008462;28;20461;-78
2022/07/20 04:56:29;;;;;;;11.77;3.10;;;;;;;;;;5032688;28;20025;-80
2022/07/20 04:58:55;;;;;;;5.45;3.30;;;;;;;;;;5026947;28;20049;-77
2022/07/20 05:01:22;;;;;;;6.47;2.60;;;;;;;;;;5032447;28;20033;-77
2022/07/20 05:03:48;;;;;;;4.70;2.50;;;;;;;;;;5027142;28;20030;-78
2022/07/20 05:06:14;;;;;;;4.75;3.03;;;;;;;;;;5023862;28;20497;-84
2022/07/20 05:08:40;;;;;;;7.97;2.85;;;;;;;;;;5008605;28;20037;-77
2022/07/20 05:11:06;;;;;;;8.68;3.17;;;;;;;;;;5031309;28;20025;-77
2022/07/20 05:13:32;;;;;;;10.63;2.83;;;23.10;99.90;;;;;;5028559;28;20037;-77
2022/07/20 05:15:58;;;;;;;4.50;2.88;;;;;;;;;;5030118;28;20040;-80
2022/07/20 05:18:24;;;;;;;7.03;2.63;;;23.20;99.90;;;;;;5025481;28;20485;-77
2022/07/20 05:20:50;;;;;;;3.80;2.40;;;23.30;99.90;;;;;;5001770;28;20079;-76
2022/07/20 05:23:16;;;;;;;7.97;2.72;;;;;;;;;;5024834;28;20546;-86
2022/07/20 05:25:42;;;;;;;6.22;3.08;;;;;;;;;;5029495;28;20060;-81
2022/07/20 05:28:08;;;;;;;8.77;2.35;;;23.60;99.70;;;;;;5007128;28;20055;-77
2022/07/20 05:30:34;;;;;;;9.38;2.80;;;;;;;;;;5030063;28;20147;-81
2022/07/20 05:33:00;;;;;;;6.68;2.92;;;;;;;;;;5029249;28;20531;-77
2022/07/20 05:35:26;;;;;;;8.38;3.30;;;;;;;;;;5021734;28;20474;-77
2022/07/20 05:37:52;;;;;;;4.63;2.33;;;;;;;;;;5016454;28;20124;-78
2022/07/20 05:40:18;;;;;;;8.30;3.15;;;;;;;;;;5031689;28;20041;-80
2022/07/20 05:42:44;;;;;;;6.10;2.60;;;;;;;;;;5016655;28;20033;-78
2022/07/20 05:45:10;;;;;;;7.15;3.15;;;;;;;;;;5032897;28;20068;-80
2022/07/20 05:47:36;;;;;;;8.13;2.55;;;23.80;99.40;;;;;;5030533;28;20471;-78
2022/07/20 05:50:02;;;;;;;7.57;2.75;;;;;;;;;;5016505;28;20116;-78
2022/07/20 05:52:29;;;;;;;6.55;3.47;;;;;;;;;;5031000;28;20091;-77
2022/07/20 05:54:55;;;;;;;7.45;3.03;;;;;;;;;;5027916;28;20029;-78
2022/07/20 05:57:21;;;;;;;8.20;2.30;;;;;;;;;;5033440;28;20037;-78
2022/07/20 05:59:47;;;;;;;6.25;2.67;;;;;;;;;;5033791;28;20465;-77
2022/07/20 06:02:13;;;;;;;6.43;2.17;;;;;;;;;;5031322;28;20029;-77
2022/07/20 06:04:39;;;;;;;4.50;2.28;;;;;;;;;;5025875;28;20479;-80
2022/07/20 06:07:05;;;;;;;5.40;2.75;;;;;;;;;;5033858;28;20485;-80
2022/07/20 06:09:31;;;;;;;5.97;3.03;;;;;;;;;;5032674;28;20037;-78
2022/07/20 06:11:58;;;;;;;10.10;2.80;;;;;;;;;;5031973;28;20099;-79
2022/07/20 06:14:23;;;;;;;4.97;2.63;;;24.20;99.60;;;;;;5033063;28;20037;-79
2022/07/20 06:16:49;;;;;;;6.72;3.38;;;;;;;;;;5033282;28;20045;-78
2022/07/20 06:19:15;;;;;;;8.27;2.72;;;;;;;;;;5033517;28;20029;-78
2022/07/20 06:21:41;;;;;;;11.10;3.47;;;;;;;;;;5033531;28;20045;-78
2022/07/20 06:24:07;;;;;;;5.85;2.75;;;;;;;;;;5031690;28;20041;-78
2022/07/20 06:26:33;;;;;;;5.57;3.25;;;;;;;;;;5027500;28;20047;-80
2022/07/20 06:28:59;;;;;;;9.23;4.30;;;;;;;;;;5016379;28;20405;-78
2022/07/20 06:31:26;;;;;;;7.30;3.60;;;;;;;;;;5004727;28;20034;-79
2022/07/20 06:33:52;;;;;;;12.15;3.40;;;;;;;;;;5013714;28;20049;-72
2022/07/20 06:36:18;;;;;;;7.53;3.17;;;26.00;97.20;;;;;;5003696;28;20488;-73
2022/07/20 06:38:44;;;;;;;7.05;3.40;;;;;;;;;;5010383;28;20096;-72
2022/07/20 06:41:11;;;;;;;9.80;4.40;;;;;;;;;;5007996;28;20129;-72
2022/07/20 06:43:37;;;;;;;8.07;3.97;;;;;;;;;;5005747;28;20105;-73
2022/07/20 06:46:03;;;;;;;13.75;4.55;;;;;;;;;;5009405;28;20121;-73
2022/07/20 06:48:29;;;;;;;17.10;6.97;;;;;;;;;;5009381;28;20152;-73
2022/07/20 06:50:54;;;;;;;13.07;6.90;;;27.50;96.80;;;;;;5009961;28;20037;-71
2022/07/20 06:53:20;;;;;;;15.82;7.30;;;;;;;;;;5012638;28;20088;-72
2022/07/20 06:55:46;;;;;;;15.25;6.03;;;;;;;;;;5011378;28;20072;-77
2022/07/20 06:58:12;;;;;;;14.70;5.15;;;;;;;;;;5016413;28;20038;-82
2022/07/20 07:00:39;;;;;;;15.00;5.28;;;;;;;;;;5005751;28;20052;-79
2022/07/20 07:03:04;;;;;;;12.90;6.20;;;;;;;;;;5000787;28;20370;-78
2022/07/20 07:05:31;;;;;;;13.85;8.07;;;;;;;;;;5012364;28;20030;-79
2022/07/20 07:07:57;;;;;;;12.98;8.50;;;26.60;99.90;;;;;;5016063;28;20044;-79
2022/07/20 07:10:25;;;;;;;12.98;6.32;;;;;;;;;;5014928;28;20116;-81
2022/07/20 07:12:51;;;;;;;15.18;7.60;;;;;;;;;;5008598;28;20040;-79
2022/07/20 07:15:17;;;;;;;17.52;8.63;;;;;;;;;;5010932;28;20037;-79
2022/07/20 07:17:43;;;;;;;15.35;7.53;;;;;;;;;;5006643;28;20073;-77
2022/07/20 07:20:10;;;;;;;19.65;9.07;;;27.90;99.50;;;;;;5001472;28;20084;-78
2022/07/20 07:22:36;;;;;;;20.45;8.93;;;;;;;;;;5007883;28;20478;-86
2022/07/20 07:25:02;;;;;;;19.92;9.57;;;;;;;;;;5007682;28;20045;-77
2022/07/20 07:27:28;;;;;;;21.95;10.43;;;;;;;;;;5002838;28;20494;-78
2022/07/20 07:29:54;;;;;;;26.08;10.85;;;;;;;;;;5011411;28;20026;-78
2022/07/20 07:32:19;;;;;;;13.70;9.13;;;31.20;96.50;;;;;;5007044;28;20033;-78
2022/07/20 07:34:45;;;;;;;23.63;10.18;;;;;;;;;;5008588;28;20113;-79
2022/07/20 07:37:11;;;;;;;20.17;9.80;;;;;;;;;;5002843;28;20038;-79
2022/07/20 07:39:37;;;;;;;18.70;9.48;;;;;;;;;;5004416;28;20620;-79
2022/07/20 07:42:04;;;;;;;17.90;9.70;;;;;;;;;;4998042;28;20041;-78
2022/07/20 07:44:29;;;;;;;18.05;10.65;;;32.60;96.50;;;;;;5008484;28;20056;-81
2022/07/20 07:46:55;;;;;;;18.95;11.07;;;;;;;;;;5011102;28;20490;-76
2022/07/20 07:49:21;;;;;;;58.38;37.85;;;;;;;;;;5003633;28;20528;-75
2022/07/20 07:51:47;;;;;;;28.75;17.00;;;33.20;95.20;;;;;;5005887;28;20030;-75
2022/07/20 07:54:12;;;;;;;27.23;12.25;;;32.90;94.50;;;;;;5008001;28;20120;-71
2022/07/20 07:56:38;;;;;;;21.05;12.65;;;33.10;93.00;;;;;;5008502;28;20036;-72
2022/07/20 07:59:04;;;;;;;20.42;12.77;;;;;;;;;;4999593;28;20082;-71
2022/07/20 08:01:31;;;;;;;28.65;14.10;;;33.50;93.70;;;;;;5012038;28;20065;-72
2022/07/20 08:03:57;;;;;;;24.05;13.55;;;33.70;93.90;;;;;;5009207;28;20466;-72
2022/07/20 08:06:23;;;;;;;29.65;14.02;;;;;;;;;;5006603;28;20049;-73
2022/07/20 08:08:49;;;;;;;29.13;13.88;;;;;;;;;;5011102;28;20177;-72
2022/07/20 08:11:15;;;;;;;25.73;13.73;;;33.50;96.20;;;;;;5011524;28;20180;-72
2022/07/20 08:13:41;;;;;;;23.95;13.57;;;33.70;97.10;;;;;;5011612;28;20029;-72
2022/07/20 08:16:06;;;;;;;24.38;12.73;;;33.80;92.10;;;;;;5011360;28;20121;-75
2022/07/20 08:18:33;;;;;;;26.67;13.32;;;33.80;93.30;;;;;;4989790;28;20034;-72
2022/07/20 08:20:59;;;;;;;21.48;12.95;;;;;;;;;;4989821;28;20038;-73
2022/07/20 08:23:25;;;;;;;25.17;13.38;;;;;;;;;;5009439;28;20080;-72
2022/07/20 08:25:51;;;;;;;24.35;13.90;;;;;;;;;;5011230;28;21821;-78
2022/07/20 08:28:20;;;;;;;25.85;13.95;;;;;;;;;;5005253;28;20111;-72
2022/07/20 08:30:49;;;;;;;24.83;13.55;;;33.90;80.60;;;;;;5027616;28;20025;-73
2022/07/20 08:33:15;;;;;;;21.85;13.15;;;34.00;91.90;;;;;;5023671;28;20026;-72
2022/07/20 08:35:41;;;;;;;22.75;13.05;;;;;;;;;;5028904;28;20096;-76
2022/07/20 08:38:07;;;;;;;23.02;13.98;;;;;;;;;;5028650;28;20040;-76
2022/07/20 08:40:33;;;;;;;30.33;13.20;;;;;;;;;;5023121;28;20046;-73
2022/07/20 08:43:00;;;;;;;23.20;12.88;;;34.20;79.50;;;;;;5014529;28;20064;-73
2022/07/20 08:45:28;;;;;;;25.08;14.23;;;;;;;;;;5040307;28;20025;-73
2022/07/20 08:47:54;;;;;;;22.05;13.35;;;;;;;;;;5012008;28;20140;-73
2022/07/20 08:50:25;;;;;;;23.83;13.18;;;33.70;82.10;;;;;;5022461;28;20452;-72
2022/07/20 08:52:52;;;;;;;23.13;12.88;;;33.90;81.00;;;;;;5025344;28;20057;-75
2022/07/20 08:55:19;;;;;;;25.08;13.00;;;34.10;91.30;;;;;;5051050;28;20078;-73
2022/07/20 08:57:45;;;;;;;25.23;14.57;;;;;;;;;;5037087;28;20545;-74
2022/07/20 09:00:11;;;;;;;27.70;14.63;;;;;;;;;;5011404;28;20037;-76
2022/07/20 09:02:57;;;;;;;24.08;14.05;;;;;;;;;;5030084;28;20082;-76
2022/07/20 09:05:25;;;;;;;29.17;14.98;;;;;;;;;;5021686;28;20359;-74
2022/07/20 09:07:52;;;;;;;25.40;13.80;;;;;;;;;;5021464;28;20045;-81
2022/07/20 09:10:20;;;;;;;29.92;14.45;;;;;;;;;;5011030;28;20397;-73
2022/07/20 09:12:54;;;;;;;26.77;14.10;;;;;;;;;;5019360;28;20060;-74
2022/07/20 09:15:47;;;;;;;26.33;13.43;;;33.70;78.50;;;;;;5030943;28;20029;-73
2022/07/20 09:18:30;;;;;;;21.20;11.98;;;33.60;80.20;;;;;;5024212;28;20041;-73
2022/07/20 09:20:56;;;;;;;19.17;12.15;;;;;;;;;;5015801;28;20120;-76
2022/07/20 09:23:24;;;;;;;15.93;11.90;;;;;;;;;;5027217;28;20500;-73
2022/07/20 09:25:53;;;;;;;20.05;12.70;;;;;;;;;;5033849;28;20053;-73
2022/07/20 09:28:19;;;;;;;27.17;12.82;;;;;;;;;;5016226;28;20141;-74
2022/07/20 09:30:56;;;;;;;26.13;12.68;;;;;;;;;;5027436;28;20029;-74
2022/07/20 09:33:28;;;;;;;22.02;11.88;;;;;;;;;;5027903;28;20061;-79
2022/07/20 09:35:56;;;;;;;28.73;12.38;;;34.20;80.30;;;;;;5033637;28;20060;-73
2022/07/20 09:38:30;;;;;;;21.60;11.65;;;34.00;77.60;;;;;;5032450;28;20044;-74
2022/07/20 09:40:56;;;;;;;28.73;11.32;;;;;;;;;;5029889;28;20509;-74
2022/07/20 09:43:39;;;;;;;24.90;10.63;;;34.00;76.30;;;;;;5034312;28;20056;-73
2022/07/20 09:46:16;;;;;;;21.55;9.50;;;;;;;;;;5023991;28;20042;-74
2022/07/20 09:48:46;;;;;;;17.58;9.15;;;;;;;;;;5031452;28;20056;-83
2022/07/20 09:51:21;;;;;;;17.57;8.57;;;34.50;78.60;;;;;;5032439;28;20080;-74
2022/07/20 09:53:53;;;;;;;18.67;7.65;;;34.30;86.40;;;;;;5032921;28;20054;-73
2022/07/20 09:56:20;;;;;;;14.85;6.35;;;34.50;85.90;;;;;;5022615;28;20105;-74
2022/07/20 09:58:47;;;;;;;13.32;6.72;;;34.40;85.50;;;;;;5031395;28;20172;-74
2022/07/20 10:01:17;;;;;;;15.68;6.15;;;34.20;85.90;;;;;;5015781;28;20036;-74
2022/07/20 10:03:45;;;;;;;15.23;7.40;;;34.20;74.80;;;;;;5029092;28;20132;-80
2022/07/20 10:06:11;;;;;;;17.35;6.90;;;;;;;;;;5021959;28;20519;-78
2022/07/20 10:08:38;;;;;;;15.23;7.00;;;34.30;88.50;;;;;;5024379;28;20037;-74
2022/07/20 10:11:04;;;;;;;11.73;6.10;;;;;;;;;;5029688;28;20560;-76
2022/07/20 10:13:31;;;;;;;14.80;7.07;;;34.30;88.70;;;;;;5032964;28;20508;-74
2022/07/20 10:16:18;;;;;;;10.80;6.63;;;34.50;77.20;;;;;;5022130;28;20033;-80
2022/07/20 10:18:45;;;;;;;12.18;6.75;;;34.20;89.00;;;;;;5029667;28;20013;-73
2022/07/20 10:21:49;;;;;;;13.70;6.63;;;34.20;89.30;;;;;;5034684;28;20040;-73
2022/07/20 10:24:27;;;;;;;13.90;7.18;;;34.20;75.50;;;;;;5031078;28;20053;-73
2022/07/20 10:26:57;;;;;;;16.08;6.55;;;34.70;78.70;;;;;;5025263;28;20037;-75
2022/07/20 10:29:39;;;;;;;22.00;7.18;;;34.30;89.70;;;;;;5022466;28;20143;-73
2022/07/20 10:32:17;;;;;;;14.02;6.47;;;34.30;83.10;;;;;;5030969;28;20428;-73
2022/07/20 10:34:45;;;;;;;16.85;6.85;;;34.40;89.50;;;;;;5034046;28;20037;-74
2022/07/20 10:37:27;;;;;;;15.25;7.55;;;;;;;;;;5026852;28;20463;-73
2022/07/20 10:40:04;;;;;;;12.88;6.43;;;35.00;76.40;;;;;;5036965;28;20370;-74
2022/07/20 10:42:37;;;;;;;10.93;6.55;;;;;;;;;;5033292;28;20472;-74
2022/07/20 10:45:20;;;;;;;14.70;6.63;;;34.90;87.80;;;;;;5032755;28;20050;-74
2022/07/20 10:48:03;;;;;;;12.65;6.75;;;34.80;71.60;;;;;;5019245;28;20037;-74
2022/07/20 10:50:36;;;;;;;12.07;6.88;;;34.80;71.00;;;;;;5032345;28;20104;-74
2022/07/20 10:53:11;;;;;;;18.67;6.68;;;;;;;;;;5035533;28;20089;-77
2022/07/20 10:55:37;;;;;;;18.05;6.05;;;;;;;;;;5030037;28;20468;-74
2022/07/20 10:58:07;;;;;;;11.82;6.78;;;34.90;89.70;;;;;;5033630;28;20117;-74
2022/07/20 11:00:34;;;;;;;15.35;6.57;;;35.00;89.20;;;;;;5029574;28;20052;-74
2022/07/20 11:03:44;;;;;;;11.68;6.50;;;35.10;90.00;;;;;;4999540;28;20030;-74
2022/07/20 11:06:23;;;;;;;13.90;6.65;;;35.00;83.10;;;;;;5013611;28;20030;-73
2022/07/20 11:08:55;;;;;;;17.95;6.18;;;35.00;83.00;;;;;;5029262;28;20045;-74
2022/07/20 11:11:25;;;;;;;9.95;6.07;;;35.30;82.40;;;;;;5031250;28;20017;-80
2022/07/20 11:13:52;;;;;;;9.05;5.88;;;35.10;94.90;;;;;;5026088;28;20446;-74
2022/07/20 11:16:23;;;;;;;11.60;5.05;;;;;;;;;;5013250;28;20157;-76
2022/07/20 11:18:50;;;;;;;15.57;5.70;;;;;;;;;;5032846;28;20104;-73
2022/07/20 11:21:16;;;;;;;10.57;5.35;;;;;;;;;;5027243;28;20109;-73
2022/07/20 11:23:43;;;;;;;11.18;5.07;;;;;;;;;;5030042;28;20138;-74
2022/07/20 11:26:10;;;;;;;10.05;5.75;;;;;;;;;;5029395;28;20060;-74
2022/07/20 11:28:43;;;;;;;12.48;5.35;;;;;;;;;;5024723;28;20053;-74
2022/07/20 11:31:09;;;;;;;11.77;6.45;;;;;;;;;;5011561;28;20030;-73
2022/07/20 11:33:36;;;;;;;14.50;4.90;;;;;;;;;;5009660;28;20117;-73
2022/07/20 11:36:05;;;;;;;10.43;4.68;;;;;;;;;;5009089;28;20481;-75
2022/07/20 11:38:40;;;;;;;9.70;5.63;;;34.00;68.00;;;;;;5007693;28;20041;-80
2022/07/20 11:41:12;;;;;;;11.68;5.05;;;33.80;71.80;;;;;;5010813;28;20025;-81
2022/07/20 11:43:38;;;;;;;12.32;5.43;;;34.00;84.50;;;;;;5010595;28;20533;-73
2022/07/20 11:46:22;;;;;;;11.80;5.13;;;;;;;;;;5003026;28;20064;-78
2022/07/20 11:49:02;;;;;;;9.55;5.40;;;34.00;72.20;;;;;;4999493;28;20056;-74
2022/07/20 11:51:29;;;;;;;10.50;5.95;;;33.60;72.90;;;;;;4985603;28;20034;-75
2022/07/20 11:53:55;;;;;;;11.50;5.18;;;33.60;71.90;;;;;;4998970;28;20112;-74
2022/07/20 11:56:23;;;;;;;11.15;6.00;;;;;;;;;;5011764;28;20065;-73
2022/07/20 11:58:50;;;;;;;13.40;5.70;;;33.40;72.50;;;;;;5011996;28;20033;-80
2022/07/20 12:01:21;;;;;;;15.10;5.20;;;;;;;;;;4999786;28;20033;-74
2022/07/20 12:03:51;;;;;;;11.95;6.43;;;;;;;;;;4993363;28;20030;-73
2022/07/20 12:06:18;;;;;;;13.85;6.38;;;;;;;;;;4990792;28;20038;-74
2022/07/20 12:09:00;;;;;;;11.65;6.20;;;33.80;84.70;;;;;;4977527;28;20046;-73
2022/07/20 12:11:26;;;;;;;12.88;6.00;;;33.60;85.10;;;;;;5008872;28;20020;-73
2022/07/20 12:13:52;;;;;;;10.93;6.28;;;33.70;85.20;;;;;;4996828;28;20097;-73
2022/07/20 12:16:19;;;;;;;11.13;6.05;;;;;;;;;;4998877;28;20038;-74
2022/07/20 12:18:52;;;;;;;12.70;5.85;;;33.80;73.10;;;;;;5004265;28;20038;-73
2022/07/20 12:21:21;;;;;;;12.55;6.28;;;33.80;71.30;;;;;;5012352;28;20037;-73
2022/07/20 12:23:51;;;;;;;9.52;5.63;;;33.80;73.00;;;;;;5003701;28;20057;-73
2022/07/20 12:26:25;;;;;;;8.27;5.32;;;33.70;72.00;;;;;;5009341;28;20041;-76
2022/07/20 12:28:52;;;;;;;10.23;5.45;;;33.90;75.60;;;;;;5015237;28;20061;-77
2022/07/20 12:31:19;;;;;;;10.25;5.20;;;;;;;;;;5029547;28;20064;-73
2022/07/20 12:34:08;;;;;;;13.07;5.40;;;33.50;75.00;;;;;;5031877;28;20057;-73
2022/07/20 12:36:35;;;;;;;12.75;5.32;;;;;;;;;;5023075;28;20062;-73
2022/07/20 12:39:03;;;;;;;10.88;4.85;;;;;;;;;;5021422;28;20172;-73
2022/07/20 12:41:29;;;;;;;6.78;5.13;;;33.80;84.90;;;;;;5028722;28;20036;-73
2022/07/20 12:43:55;;;;;;;7.35;4.38;;;;;;;;;;5013987;28;20112;-73
2022/07/20 12:46:21;;;;;;;8.85;4.90;;;34.00;77.50;;;;;;5030261;28;20041;-74
2022/07/20 12:48:50;;;;;;;10.77;5.00;;;33.90;72.40;;;;;;5009177;28;20050;-73
2022/07/20 12:51:17;;;;;;;11.35;4.65;;;33.80;85.00;;;;;;5024262;28;20029;-73
2022/07/20 12:53:44;;;;;;;10.95;5.50;;;33.70;71.30;;;;;;5031270;28;20036;-72
2022/07/20 12:56:11;;;;;;;10.25;4.00;;;33.60;83.80;;;;;;5028695;28;20083;-73
2022/07/20 12:58:37;;;;;;;8.60;4.10;;;;;;;;;;5030525;28;20038;-73
2022/07/20 13:01:03;;;;;;;8.77;4.45;;;;;;;;;;5014565;28;20378;-73
2022/07/20 13:03:29;;;;;;;8.52;4.85;;;;;;;;;;5024583;28;20038;-71
2022/07/20 13:05:55;;;;;;;8.65;4.88;;;;;;;;;;5022582;28;20034;-74
2022/07/20 13:08:22;;;;;;;11.45;4.95;;;;;;;;;;5022893;28;20096;-75
2022/07/20 13:10:48;;;;;;;11.73;4.80;;;;;;;;;;5028060;28;20681;-74
2022/07/20 13:13:14;;;;;;;9.30;4.20;;;;;;;;;;5031984;28;20087;-75
2022/07/20 13:15:40;;;;;;;7.47;4.20;;;;;;;;;;5020590;28;20037;-75
2022/07/20 13:18:10;;;;;;;10.50;4.10;;;33.30;72.80;;;;;;5036164;28;20112;-75
2022/07/20 13:20:37;;;;;;;5.37;3.87;;;;;;;;;;5033575;28;20052;-74
2022/07/20 13:23:04;;;;;;;6.55;4.30;;;;;;;;;;5032226;28;20290;-74
2022/07/20 13:25:30;;;;;;;8.45;3.70;;;33.40;84.60;;;;;;5031067;28;20026;-74
2022/07/20 13:27:56;;;;;;;7.80;3.85;;;;;;;;;;5032225;28;20551;-75
2022/07/20 13:30:23;;;;;;;8.38;4.38;;;33.30;84.80;;;;;;5009130;28;20064;-75
2022/07/20 13:32:49;;;;;;;5.30;3.88;;;;;;;;;;4995802;28;20029;-75
2022/07/20 13:35:15;;;;;;;9.80;4.78;;;;;;;;;;5008363;28;20367;-82
2022/07/20 13:37:41;;;;;;;13.93;4.65;;;;;;;;;;4988319;28;20049;-76
2022/07/20 13:40:11;;;;;;;8.98;4.43;;;;;;;;;;5009572;28;20034;-77
2022/07/20 13:42:38;;;;;;;7.07;4.15;;;;;;;;;;5001178;28;20406;-76
2022/07/20 13:45:05;;;;;;;11.77;4.47;;;;;;;;;;4994600;28;20029;-76
2022/07/20 13:47:31;;;;;;;7.50;5.00;;;33.80;86.50;;;;;;5007950;28;20038;-75
2022/07/20 13:49:56;;;;;;;12.60;4.90;;;;;;;;;;5005087;28;20505;-75
2022/07/20 13:52:22;;;;;;;9.70;4.53;;;;;;;;;;5009175;28;20034;-74
2022/07/20 13:54:48;;;;;;;12.50;5.53;;;34.00;86.90;;;;;;5000854;28;20073;-74
2022/07/20 13:57:14;;;;;;;10.60;4.88;;;;;;;;;;5000790;28;20041;-77
2022/07/20 13:59:40;;;;;;;14.32;4.65;;;;;;;;;;4998066;28;20123;-76
2022/07/20 14:02:06;;;;;;;10.35;4.43;;;;;;;;;;5003136;28;20060;-74